Time;durP1;ratioP1;P1;durP2;ratioP2;P2;SDS_P1;SDS_P2;PMS_P1;PMS_P2;Temp;Humidity;BMP_temperature;BMP_pressure;BME280_temperature;BME280_humidity;BME280_pressure;Samples;Min_cycle;Max_cycle;Signal;HPM_P1;HPM_P2
2022/06/23 00:03:08;;;;;;;12.15;3.95;;;21.50;99.90;;;;;;6936428;28;20480;-79
2022/06/23 00:06:44;;;;;;;12.95;3.50;;;21.50;99.90;;;;;;6938598;28;20489;-79
2022/06/23 00:10:16;;;;;;;11.27;3.63;;;21.50;99.90;;;;;;6937095;28;20563;-77
2022/06/23 00:13:39;;;;;;;10.90;4.00;;;21.40;99.90;;;;;;6938502;28;20486;-80
2022/06/23 00:17:17;;;;;;;9.65;3.38;;;21.30;99.90;;;;;;6938286;28;20469;-79
2022/06/23 00:20:46;;;;;;;9.05;3.40;;;21.20;99.90;;;;;;6938148;28;20490;-78
2022/06/23 00:24:18;;;;;;;9.13;3.58;;;21.10;99.90;;;;;;6921681;28;20472;-78
2022/06/23 00:27:44;;;;;;;8.95;3.55;;;21.10;99.90;;;;;;6940379;28;20435;-79
2022/06/23 00:31:24;;;;;;;9.57;3.50;;;21.20;99.90;;;;;;6943409;28;20431;-79
2022/06/23 00:34:58;;;;;;;10.32;3.72;;;21.20;99.90;;;;;;6943692;28;20490;-78
2022/06/23 00:38:26;;;;;;;12.88;3.92;;;21.20;99.90;;;;;;6943405;28;20474;-79
2022/06/23 00:41:50;;;;;;;10.50;3.43;;;21.10;99.90;;;;;;6942430;28;20971;-79
2022/06/23 00:45:22;;;;;;;10.75;3.67;;;21.10;99.90;;;;;;6931148;28;20470;-80
2022/06/23 00:48:50;;;;;;;12.07;3.45;;;21.00;99.90;;;;;;6942301;28;20497;-79
2022/06/23 00:52:21;;;;;;;9.23;3.42;;;21.00;99.90;;;;;;6943151;28;20974;-78
2022/06/23 00:55:53;;;;;;;9.07;3.60;;;20.90;99.90;;;;;;6942291;28;20470;-80
2022/06/23 00:59:22;;;;;;;10.77;3.60;;;20.90;99.90;;;;;;6937027;28;20467;-80
2022/06/23 01:02:51;;;;;;;10.23;3.30;;;20.80;99.90;;;;;;6944667;28;20523;-79
2022/06/23 01:06:19;;;;;;;8.32;3.28;;;20.80;99.90;;;;;;6936979;28;20460;-81
2022/06/23 01:09:48;;;;;;;10.73;3.53;;;20.80;99.90;;;;;;6941762;28;20770;-78
2022/06/23 01:13:21;;;;;;;8.73;3.13;;;20.70;99.90;;;;;;6942321;28;20438;-79
2022/06/23 01:16:49;;;;;;;7.30;3.30;;;20.70;99.90;;;;;;6942425;28;20437;-78
2022/06/23 01:20:30;;;;;;;7.55;2.80;;;20.60;99.90;;;;;;6934108;28;20473;-79
2022/06/23 01:24:15;;;;;;;11.17;3.20;;;20.50;99.90;;;;;;6940853;28;21028;-79
2022/06/23 01:28:01;;;;;;;8.23;3.17;;;20.50;99.90;;;;;;6940464;28;20481;-79
2022/06/23 01:31:27;;;;;;;8.05;3.10;;;20.50;99.90;;;;;;6941496;28;20830;-78
2022/06/23 01:34:56;;;;;;;7.53;3.10;;;20.50;99.90;;;;;;6941363;28;20776;-79
2022/06/23 01:38:25;;;;;;;7.68;3.00;;;20.40;99.90;;;;;;6940777;28;20450;-79
2022/06/23 01:41:56;;;;;;;9.05;3.08;;;20.20;99.90;;;;;;6941261;28;20573;-78
2022/06/23 01:45:25;;;;;;;9.07;3.65;;;20.10;99.90;;;;;;6941190;28;20777;-80
2022/06/23 01:48:54;;;;;;;7.43;2.80;;;20.20;99.90;;;;;;6946153;28;20439;-80
2022/06/23 01:52:21;;;;;;;8.77;2.60;;;20.20;99.90;;;;;;6941729;28;20897;-78
2022/06/23 01:56:10;;;;;;;11.18;3.20;;;20.20;99.90;;;;;;6940906;28;20891;-80
2022/06/23 01:59:56;;;;;;;10.13;3.65;;;20.10;99.90;;;;;;6940528;28;20443;-79
2022/06/23 02:03:24;;;;;;;8.65;3.13;;;20.10;99.90;;;;;;6927523;28;20983;-78
2022/06/23 02:06:54;;;;;;;9.98;2.97;;;20.20;99.90;;;;;;6939815;28;20486;-79
2022/06/23 02:10:25;;;;;;;8.82;3.28;;;20.30;99.90;;;;;;6940889;28;20462;-80
2022/06/23 02:13:53;;;;;;;12.38;3.58;;;20.20;99.90;;;;;;6940182;28;20462;-79
2022/06/23 02:17:37;;;;;;;9.20;3.15;;;20.20;99.90;;;;;;6940909;28;20944;-78
2022/06/23 02:21:22;;;;;;;9.97;3.47;;;20.20;99.90;;;;;;6939528;28;20476;-78
2022/06/23 02:24:51;;;;;;;8.85;3.05;;;20.20;99.90;;;;;;6940298;28;20466;-78
2022/06/23 02:28:22;;;;;;;8.10;3.23;;;20.20;99.90;;;;;;6939969;28;20523;-79
2022/06/23 02:31:51;;;;;;;8.30;2.90;;;19.90;99.90;;;;;;6940477;28;20796;-78
2022/06/23 02:35:22;;;;;;;8.80;3.17;;;19.90;99.90;;;;;;6936086;28;20431;-79
2022/06/23 02:38:51;;;;;;;8.80;3.10;;;19.90;99.90;;;;;;6939226;28;20481;-79
2022/06/23 02:42:28;;;;;;;9.13;3.40;;;19.90;99.90;;;;;;6925242;28;20439;-78
2022/06/23 02:46:34;;;;;;;8.85;3.22;;;19.90;99.90;;;;;;6932312;28;20434;-79
2022/06/23 02:50:20;;;;;;;7.22;3.08;;;20.00;99.90;;;;;;6928553;28;20472;-81
2022/06/23 02:54:20;;;;;;;8.90;3.37;;;20.00;99.90;;;;;;6937268;28;20431;-79
2022/06/23 02:57:47;;;;;;;9.25;3.30;;;20.00;99.90;;;;;;6939426;28;20478;-79
2022/06/23 03:01:17;;;;;;;12.10;3.37;;;19.80;99.90;;;;;;6940310;28;20916;-78
2022/06/23 03:04:46;;;;;;;7.97;3.50;;;19.80;99.90;;;;;;6938959;28;21120;-78
2022/06/23 03:08:21;;;;;;;10.50;3.15;;;19.80;99.90;;;;;;6939832;28;20435;-77
2022/06/23 03:11:54;;;;;;;22.55;4.00;;;19.70;99.90;;;;;;6940193;28;20841;-77
2022/06/23 03:15:23;;;;;;;8.77;3.90;;;19.60;99.90;;;;;;6939615;28;20824;-80
2022/06/23 03:18:56;;;;;;;18.00;4.38;;;19.50;99.90;;;;;;6938318;28;20443;-77
2022/06/23 03:22:25;;;;;;;10.33;3.60;;;19.50;99.90;;;;;;6939321;28;20493;-79
2022/06/23 03:25:55;;;;;;;61.95;5.15;;;19.60;99.90;;;;;;6929142;28;20439;-79
2022/06/23 03:29:25;;;;;;;25.80;4.80;;;19.40;99.90;;;;;;6938470;28;20478;-79
2022/06/23 03:32:53;;;;;;;30.13;4.73;;;19.30;99.90;;;;;;6937823;28;20446;-79
2022/06/23 03:36:24;;;;;;;70.87;5.00;;;19.20;99.90;;;;;;6939376;28;20938;-79
2022/06/23 03:43:42;;;;;;;23.98;4.28;;;19.10;99.90;;;;;;6939060;28;20431;-79
2022/06/23 03:47:15;;;;;;;9.87;3.70;;;19.20;99.90;;;;;;6939125;28;20497;-78
2022/06/23 03:50:47;;;;;;;10.15;3.60;;;19.30;99.90;;;;;;6938843;28;20446;-79
2022/06/23 03:54:15;;;;;;;10.25;4.07;;;19.30;99.90;;;;;;6938605;28;20438;-77
2022/06/23 03:57:53;;;;;;;6.87;3.40;;;19.30;99.90;;;;;;6938833;28;20450;-79
2022/06/23 04:01:22;;;;;;;6.00;3.00;;;19.40;99.90;;;;;;6938961;28;20873;-80
2022/06/23 04:04:54;;;;;;;6.53;2.87;;;19.40;99.90;;;;;;6943643;28;20998;-78
2022/06/23 04:08:16;;;;;;;6.93;2.92;;;19.50;99.90;;;;;;6930798;28;20435;-79
2022/06/23 04:11:57;;;;;;;5.63;3.00;;;19.60;99.90;;;;;;6944628;28;20431;-79
2022/06/23 04:15:29;;;;;;;6.68;2.90;;;19.60;99.90;;;;;;6943101;28;20442;-80
2022/06/23 04:18:52;;;;;;;6.80;3.00;;;19.70;99.90;;;;;;6942915;28;20439;-80
2022/06/23 04:22:24;;;;;;;5.57;3.13;;;19.70;99.90;;;;;;6943347;28;20434;-80
2022/06/23 04:25:52;;;;;;;6.80;3.55;;;19.70;99.90;;;;;;6943218;28;20434;-81
2022/06/23 04:29:24;;;;;;;7.32;3.58;;;19.60;99.90;;;;;;6939389;28;20478;-80
2022/06/23 04:32:50;;;;;;;6.78;3.65;;;19.60;99.90;;;;;;6943588;28;20426;-79
2022/06/23 04:36:21;;;;;;;7.65;4.30;;;19.60;99.90;;;;;;6943649;28;20470;-80
2022/06/23 04:39:47;;;;;;;9.23;4.20;;;19.60;99.90;;;;;;6944356;28;20445;-79
2022/06/23 04:43:18;;;;;;;7.67;4.10;;;19.60;99.90;;;;;;6928700;28;20501;-79
2022/06/23 04:46:45;;;;;;;8.13;4.10;;;19.60;99.90;;;;;;6942312;28;20431;-79
2022/06/23 04:50:16;;;;;;;13.93;4.17;;;19.60;99.90;;;;;;6938914;28;20543;-80
2022/06/23 04:53:53;;;;;;;17.35;4.53;;;19.40;99.90;;;;;;6940222;28;20435;-79
2022/06/23 04:57:22;;;;;;;10.60;3.67;;;19.20;99.90;;;;;;6928419;28;20445;-80
2022/06/23 05:00:47;;;;;;;10.02;3.30;;;19.20;99.90;;;;;;6937301;28;20436;-80
2022/06/23 05:04:20;;;;;;;17.02;3.72;;;19.20;99.90;;;;;;6932167;28;20543;-79
2022/06/23 05:07:46;;;;;;;4.73;3.30;;;19.20;99.90;;;;;;6940108;28;20836;-80
2022/06/23 05:11:15;;;;;;;4.72;2.90;;;19.30;99.90;;;;;;6943827;28;20455;-79
2022/06/23 05:14:47;;;;;;;5.15;2.90;;;19.40;99.90;;;;;;6956979;28;20417;-80
2022/06/23 05:18:14;;;;;;;5.32;3.30;;;19.50;99.90;;;;;;6965720;28;20503;-79
2022/06/23 05:21:42;;;;;;;4.88;2.83;;;19.50;99.90;;;;;;6961955;28;20439;-78
2022/06/23 05:25:35;;;;;;;5.25;3.15;;;19.50;99.90;;;;;;6926737;28;20477;-79
2022/06/23 05:29:04;;;;;;;6.30;3.20;;;19.50;99.90;;;;;;6939617;28;20769;-79
2022/06/23 05:32:33;;;;;;;6.88;3.67;;;19.60;99.90;;;;;;6951536;28;20443;-79
2022/06/23 05:36:03;;;;;;;6.57;3.58;;;19.60;99.90;;;;;;6955077;28;20442;-79
2022/06/23 05:39:35;;;;;;;8.45;3.70;;;19.60;99.90;;;;;;6940544;28;20484;-78
2022/06/23 05:43:00;;;;;;;8.20;4.00;;;19.80;99.90;;;;;;6940648;28;20935;-81
2022/06/23 05:46:27;;;;;;;8.93;4.13;;;19.90;99.90;;;;;;6940279;28;20505;-78
2022/06/23 05:49:57;;;;;;;9.73;4.72;;;19.90;99.90;;;;;;6940621;28;20470;-79
2022/06/23 05:53:27;;;;;;;9.43;4.70;;;20.00;99.90;;;;;;6932282;28;20442;-78
2022/06/23 05:56:53;;;;;;;10.48;5.07;;;19.90;99.90;;;;;;6932719;28;20808;-81
2022/06/23 06:00:24;;;;;;;8.70;4.70;;;20.10;99.90;;;;;;6933220;28;20474;-80
2022/06/23 06:03:53;;;;;;;8.82;5.53;;;20.20;99.90;;;;;;6937788;28;20470;-80
2022/06/23 06:07:20;;;;;;;10.00;5.70;;;20.10;99.90;;;;;;6939924;28;20920;-80
2022/06/23 06:10:43;;;;;;;11.00;5.70;;;20.20;99.90;;;;;;6938069;28;20471;-78
2022/06/23 06:14:06;;;;;;;8.93;5.15;;;20.20;99.90;;;;;;6936374;28;20470;-79
2022/06/23 06:17:31;;;;;;;8.50;4.18;;;20.30;99.90;;;;;;6939708;28;20434;-80
2022/06/23 06:20:56;;;;;;;8.15;4.43;;;20.50;99.90;;;;;;6935662;28;20773;-80
2022/06/23 06:24:26;;;;;;;9.90;4.68;;;20.60;99.90;;;;;;6940619;28;20435;-80
2022/06/23 06:27:48;;;;;;;10.18;4.90;;;20.80;99.90;;;;;;6936638;28;20846;-79
2022/06/23 06:31:18;;;;;;;9.85;4.50;;;20.70;99.90;;;;;;6939779;28;20466;-78
2022/06/23 06:34:46;;;;;;;10.95;4.50;;;20.80;99.90;;;;;;6915183;28;20443;-80
2022/06/23 06:38:13;;;;;;;10.23;4.67;;;20.80;99.90;;;;;;6936837;28;20483;-80
2022/06/23 06:41:39;;;;;;;10.02;4.30;;;21.00;99.90;;;;;;6937381;28;20993;-78
2022/06/23 06:45:06;;;;;;;10.40;4.30;;;21.10;99.90;;;;;;6939195;28;20439;-79
2022/06/23 06:48:32;;;;;;;10.45;4.40;;;21.20;99.90;;;;;;6940317;28;20442;-79
2022/06/23 06:51:56;;;;;;;11.27;4.33;;;21.20;99.90;;;;;;6935084;28;20478;-78
2022/06/23 06:55:23;;;;;;;8.68;4.10;;;21.30;99.90;;;;;;6938106;28;20434;-79
2022/06/23 06:58:55;;;;;;;8.43;4.03;;;21.40;99.90;;;;;;6939578;28;20490;-78
2022/06/23 07:02:23;;;;;;;9.55;4.35;;;21.40;99.90;;;;;;6935118;28;20493;-84
2022/06/23 07:05:52;;;;;;;9.32;4.20;;;21.50;99.90;;;;;;6945045;28;20431;-84
2022/06/23 07:09:29;;;;;;;13.60;5.20;;;21.50;99.90;;;;;;6941362;28;20796;-82
2022/06/23 07:12:59;;;;;;;8.73;3.80;;;21.60;99.90;;;;;;6942178;28;20493;-83
2022/06/23 07:16:29;;;;;;;10.65;4.50;;;21.70;99.90;;;;;;6940267;28;20450;-82
2022/06/23 07:19:57;;;;;;;10.27;3.95;;;21.70;99.90;;;;;;6944284;28;20668;-84
2022/06/23 07:23:25;;;;;;;9.25;3.78;;;21.80;99.90;;;;;;6947824;28;20438;-83
2022/06/23 07:26:52;;;;;;;8.63;3.63;;;21.90;99.90;;;;;;6945575;28;20431;-84
2022/06/23 07:30:18;;;;;;;7.72;3.42;;;22.00;99.90;;;;;;6942606;28;20431;-81
2022/06/23 07:33:51;;;;;;;9.03;3.70;;;22.10;99.90;;;;;;6939263;28;20438;-81
2022/06/23 07:37:23;;;;;;;8.27;3.35;;;22.20;99.90;;;;;;6940233;28;20444;-82
2022/06/23 07:40:52;;;;;;;9.33;3.50;;;22.20;99.90;;;;;;6945167;28;21037;-83
2022/06/23 07:44:20;;;;;;;7.78;3.50;;;22.30;99.90;;;;;;6943756;28;20832;-82
2022/06/23 07:47:42;;;;;;;8.82;3.50;;;22.40;99.90;;;;;;6945953;28;20912;-85
2022/06/23 07:51:09;;;;;;;9.43;3.33;;;22.50;99.90;;;;;;6943565;28;20864;-83
2022/06/23 07:54:32;;;;;;;9.38;3.47;;;22.60;99.90;;;;;;6945829;28;20908;-82
2022/06/23 07:57:55;;;;;;;8.27;3.28;;;22.60;99.90;;;;;;6944875;28;20470;-81
2022/06/23 08:01:20;;;;;;;10.02;3.33;;;22.70;99.90;;;;;;6945872;28;20524;-83
2022/06/23 08:04:54;;;;;;;11.98;3.53;;;22.70;99.90;;;;;;6940548;28;20916;-86
2022/06/23 08:08:22;;;;;;;10.10;3.30;;;22.80;99.90;;;;;;6942245;28;20485;-82
2022/06/23 08:19:27;;;;;;;9.90;3.10;;;23.00;99.90;;;;;;6947211;28;20423;-81
2022/06/23 08:22:50;;;;;;;10.38;3.40;;;23.10;99.90;;;;;;6945343;28;20434;-78
2022/06/23 08:26:16;;;;;;;10.32;3.40;;;23.20;99.90;;;;;;6942133;28;20450;-79
2022/06/23 08:29:41;;;;;;;10.63;3.35;;;23.30;99.90;;;;;;6944703;28;20437;-78
2022/06/23 08:33:04;;;;;;;9.43;3.33;;;23.30;99.90;;;;;;6943868;28;20438;-79
2022/06/23 08:36:37;;;;;;;9.38;3.42;;;23.40;99.90;;;;;;6942371;28;20434;-79
2022/06/23 08:40:04;;;;;;;12.25;3.65;;;23.40;99.90;;;;;;6944319;28;20450;-77
2022/06/23 08:43:35;;;;;;;11.05;3.30;;;23.50;99.90;;;;;;6940765;28;20439;-78
2022/06/23 08:47:06;;;;;;;9.70;3.07;;;23.60;99.90;;;;;;6922151;28;20777;-79
2022/06/23 08:50:35;;;;;;;8.77;3.03;;;23.70;99.90;;;;;;6943869;28;20430;-77
2022/06/23 08:54:09;;;;;;;10.98;3.80;;;23.70;99.90;;;;;;6944198;28;20434;-80
2022/06/23 08:57:37;;;;;;;8.98;3.20;;;23.70;99.90;;;;;;6944148;28;20466;-78
2022/06/23 09:01:08;;;;;;;9.68;3.60;;;23.80;99.90;;;;;;6944245;28;20442;-78
2022/06/23 09:04:45;;;;;;;8.13;3.10;;;23.80;99.90;;;;;;6944235;28;20469;-79
2022/06/23 09:08:19;;;;;;;11.25;3.30;;;23.80;99.90;;;;;;6943914;28;20446;-79
2022/06/23 09:11:51;;;;;;;8.55;3.20;;;23.80;99.90;;;;;;6945920;28;20474;-80
2022/06/23 09:15:38;;;;;;;10.67;3.50;;;24.00;99.90;;;;;;6947071;28;20437;-80
2022/06/23 09:19:34;;;;;;;9.52;3.03;;;24.10;99.90;;;;;;6943987;28;20439;-76
2022/06/23 09:23:26;;;;;;;12.30;3.13;;;24.20;99.90;;;;;;6943750;28;20530;-78
2022/06/23 09:26:59;;;;;;;11.18;3.35;;;24.30;99.90;;;;;;6942905;28;20510;-79
2022/06/23 09:30:37;;;;;;;11.55;3.40;;;24.20;99.70;;;;;;6943369;28;20484;-79
2022/06/23 09:34:14;;;;;;;10.45;2.83;;;24.40;99.20;;;;;;6943384;28;20485;-79
2022/06/23 09:38:08;;;;;;;10.95;3.00;;;24.40;98.30;;;;;;6943277;28;20474;-78
2022/06/23 09:41:51;;;;;;;11.23;2.90;;;24.40;98.20;;;;;;6939969;28;20928;-78
2022/06/23 09:45:51;;;;;;;9.52;2.80;;;24.40;97.10;;;;;;6942960;28;20435;-79
2022/06/23 09:49:42;;;;;;;8.77;2.70;;;24.50;97.50;;;;;;6943129;28;20496;-78
2022/06/23 09:53:40;;;;;;;8.57;2.90;;;24.50;97.80;;;;;;6942895;28;20920;-78
2022/06/23 09:57:21;;;;;;;9.00;2.78;;;24.60;98.30;;;;;;6939582;28;20450;-79
2022/06/23 10:00:53;;;;;;;9.23;2.80;;;24.60;97.50;;;;;;6941614;28;20486;-79
2022/06/23 10:04:30;;;;;;;10.60;3.23;;;24.70;97.30;;;;;;6941369;28;20515;-76
2022/06/23 10:08:09;;;;;;;10.50;2.90;;;24.70;97.50;;;;;;6942542;28;21067;-77
2022/06/23 10:11:54;;;;;;;10.60;3.30;;;24.80;97.60;;;;;;6942170;28;20434;-78
2022/06/23 10:15:40;;;;;;;9.60;3.15;;;24.90;98.60;;;;;;6942025;28;20438;-81
2022/06/23 10:19:26;;;;;;;11.63;3.50;;;25.00;98.20;;;;;;6940341;28;20486;-78
2022/06/23 10:23:09;;;;;;;9.05;2.97;;;25.10;97.60;;;;;;6939862;28;20470;-79
2022/06/23 10:26:50;;;;;;;9.45;3.25;;;25.10;97.40;;;;;;6940347;28;20438;-77
2022/06/23 10:30:20;;;;;;;10.00;3.30;;;25.10;98.50;;;;;;6942203;28;20431;-81
2022/06/23 10:34:01;;;;;;;10.23;3.43;;;25.20;97.60;;;;;;6939159;28;20435;-79
2022/06/23 10:37:52;;;;;;;12.00;3.28;;;25.20;97.10;;;;;;6926309;28;20434;-79
2022/06/23 10:41:33;;;;;;;9.95;3.10;;;25.30;97.50;;;;;;6940359;28;20478;-77
2022/06/23 10:45:33;;;;;;;9.80;3.38;;;25.40;97.90;;;;;;6941553;28;20462;-79
2022/06/23 10:49:42;;;;;;;9.98;3.22;;;25.50;98.20;;;;;;6927089;28;20446;-82
2022/06/23 10:53:42;;;;;;;8.05;2.95;;;25.60;98.10;;;;;;6914341;28;20432;-79
2022/06/23 10:57:33;;;;;;;9.02;3.00;;;25.70;97.70;;;;;;6916873;28;20435;-80
2022/06/23 11:01:11;;;;;;;10.00;3.67;;;25.80;97.70;;;;;;6914125;28;20483;-80
2022/06/23 11:05:07;;;;;;;11.45;4.38;;;25.70;97.80;;;;;;6934231;28;20435;-79
2022/06/23 11:08:53;;;;;;;11.35;3.38;;;25.80;97.20;;;;;;6936595;28;20466;-77
2022/06/23 11:12:33;;;;;;;9.00;3.13;;;25.90;97.60;;;;;;6941016;28;20478;-77
2022/06/23 11:16:06;;;;;;;9.98;3.35;;;26.00;97.30;;;;;;6941523;28;20438;-78
2022/06/23 11:19:43;;;;;;;9.85;3.40;;;26.10;97.10;;;;;;6931132;28;20899;-77
2022/06/23 11:23:16;;;;;;;9.48;3.20;;;26.10;97.00;;;;;;6912356;28;20893;-79
2022/06/23 11:26:52;;;;;;;10.90;3.27;;;26.10;96.10;;;;;;6936915;28;20928;-78
2022/06/23 11:30:23;;;;;;;10.25;3.80;;;26.10;96.40;;;;;;6929601;28;20868;-80
2022/06/23 11:34:05;;;;;;;12.30;3.85;;;26.30;96.20;;;;;;6934875;28;20445;-80
2022/06/23 11:37:48;;;;;;;13.37;4.57;;;26.40;95.60;;;;;;6936564;28;20482;-80
2022/06/23 11:41:34;;;;;;;14.43;4.00;;;26.50;95.10;;;;;;6910697;28;20827;-78
2022/06/23 11:45:20;;;;;;;9.48;2.92;;;26.70;95.70;;;;;;6909917;28;20495;-79
2022/06/23 11:49:24;;;;;;;10.75;3.50;;;26.70;94.90;;;;;;6929684;28;20967;-79
2022/06/23 11:53:15;;;;;;;10.43;3.40;;;26.90;94.50;;;;;;6921568;28;20435;-80
2022/06/23 11:56:56;;;;;;;11.60;3.58;;;27.00;93.90;;;;;;6936915;28;20478;-78
2022/06/23 12:00:26;;;;;;;10.32;3.13;;;27.00;92.70;;;;;;6936832;28;20537;-80
2022/06/23 12:04:18;;;;;;;10.98;3.70;;;27.00;92.10;;;;;;6930697;28;20470;-80
2022/06/23 12:08:09;;;;;;;9.98;2.70;;;27.10;92.20;;;;;;6936853;28;20446;-82
2022/06/23 12:11:34;;;;;;;9.00;2.88;;;27.20;92.70;;;;;;6941624;28;20438;-80
2022/06/23 12:14:57;;;;;;;10.95;3.08;;;27.30;92.60;;;;;;6935430;28;20466;-77
2022/06/23 12:18:24;;;;;;;9.52;2.70;;;27.50;92.60;;;;;;6934952;28;20462;-77
2022/06/23 12:21:57;;;;;;;7.93;2.70;;;27.60;91.50;;;;;;6936103;28;20967;-77
2022/06/23 12:25:32;;;;;;;10.60;2.60;;;27.70;91.40;;;;;;6940594;28;20431;-80
2022/06/23 12:29:10;;;;;;;8.80;2.78;;;27.80;91.40;;;;;;6940968;28;20506;-77
2022/06/23 12:32:45;;;;;;;8.35;2.90;;;28.00;90.50;;;;;;6938222;28;20462;-79
2022/06/23 12:36:18;;;;;;;8.95;2.72;;;28.10;90.00;;;;;;6941641;28;20435;-78
2022/06/23 12:39:51;;;;;;;9.50;2.70;;;28.30;90.50;;;;;;6940622;28;20497;-79
2022/06/23 12:43:23;;;;;;;8.73;2.70;;;28.40;89.30;;;;;;6940556;28;20446;-78
2022/06/23 12:46:54;;;;;;;8.27;2.40;;;28.20;88.70;;;;;;6940698;28;20458;-80
2022/06/23 12:50:56;;;;;;;8.48;2.55;;;28.30;88.20;;;;;;6940117;28;20434;-79
2022/06/23 12:54:38;;;;;;;10.63;2.70;;;28.40;86.90;;;;;;6940896;28;20904;-80
2022/06/23 12:58:29;;;;;;;10.52;2.90;;;28.20;85.30;;;;;;6938289;28;20469;-81
2022/06/23 13:01:57;;;;;;;11.88;4.25;;;28.10;85.00;;;;;;6939469;28;20810;-77
2022/06/23 13:05:26;;;;;;;10.45;3.60;;;28.30;84.40;;;;;;6936773;28;21000;-78
2022/06/23 13:08:59;;;;;;;9.85;2.45;;;28.50;81.80;;;;;;6939474;28;20439;-80
2022/06/23 13:12:29;;;;;;;11.15;4.43;;;28.40;80.60;;;;;;6944708;28;20469;-81
2022/06/23 13:15:56;;;;;;;9.95;3.05;;;28.30;84.10;;;;;;6941039;28;20438;-79
2022/06/23 13:19:24;;;;;;;10.80;2.83;;;28.60;84.80;;;;;;6937983;28;20906;-80
2022/06/23 13:22:50;;;;;;;7.70;2.88;;;28.90;80.40;;;;;;6939014;28;20575;-79
2022/06/23 13:26:18;;;;;;;9.40;2.90;;;29.10;80.00;;;;;;6939381;28;20431;-77
2022/06/23 13:29:51;;;;;;;11.05;2.80;;;29.20;80.50;;;;;;6938165;28;20431;-79
2022/06/23 13:33:24;;;;;;;9.45;2.55;;;29.30;79.10;;;;;;6933141;28;20442;-79
2022/06/23 13:36:53;;;;;;;8.05;2.70;;;29.50;78.40;;;;;;6940516;28;20920;-79
2022/06/23 13:40:26;;;;;;;8.50;2.60;;;29.70;77.60;;;;;;6937621;28;20789;-77
2022/06/23 13:43:58;;;;;;;8.90;2.63;;;29.30;75.70;;;;;;6937010;28;20431;-78
2022/06/23 13:47:25;;;;;;;10.63;2.90;;;29.30;75.60;;;;;;6938699;28;21177;-78
2022/06/23 13:50:54;;;;;;;9.82;3.05;;;29.60;75.50;;;;;;6935631;28;20859;-78
2022/06/23 13:54:26;;;;;;;9.93;3.03;;;29.90;76.60;;;;;;6938054;28;20426;-79
2022/06/23 13:57:53;;;;;;;9.00;3.50;;;30.00;76.30;;;;;;6933333;28;20466;-78
2022/06/23 14:01:23;;;;;;;12.93;4.00;;;30.10;75.40;;;;;;6938981;28;20959;-78
2022/06/23 14:04:51;;;;;;;10.40;3.83;;;30.30;74.40;;;;;;6939137;28;20476;-78
2022/06/23 14:08:19;;;;;;;10.50;3.17;;;30.30;73.10;;;;;;6937564;28;20434;-76
2022/06/23 14:11:49;;;;;;;9.05;2.80;;;30.30;71.90;;;;;;6939653;28;22118;-77
2022/06/23 14:15:19;;;;;;;10.87;2.80;;;30.40;71.50;;;;;;6938616;28;20943;-76
2022/06/23 14:18:49;;;;;;;11.20;3.30;;;30.40;70.80;;;;;;6936482;28;20601;-77
2022/06/23 14:22:21;;;;;;;11.50;3.03;;;30.30;71.50;;;;;;6937313;28;20485;-79
2022/06/23 14:25:49;;;;;;;10.07;3.20;;;30.10;70.80;;;;;;6934659;28;20459;-79
2022/06/23 14:29:20;;;;;;;9.93;2.80;;;29.80;70.80;;;;;;6938208;28;20449;-80
2022/06/23 14:32:49;;;;;;;10.57;3.05;;;30.20;71.60;;;;;;6935900;28;20869;-79
2022/06/23 14:36:20;;;;;;;8.30;2.67;;;30.40;69.60;;;;;;6938733;28;20435;-81
2022/06/23 14:39:49;;;;;;;8.77;3.03;;;30.40;69.50;;;;;;6938369;28;20430;-80
2022/06/23 14:43:32;;;;;;;10.20;2.77;;;30.60;71.20;;;;;;6936560;28;20824;-78
2022/06/23 14:47:05;;;;;;;10.70;2.77;;;30.60;69.80;;;;;;6935170;28;20475;-79
2022/06/23 14:50:41;;;;;;;9.45;2.78;;;30.60;69.00;;;;;;6936852;28;20941;-79
2022/06/23 14:54:12;;;;;;;8.88;2.67;;;30.80;69.20;;;;;;6935868;28;20439;-80
2022/06/23 14:57:44;;;;;;;9.18;2.53;;;30.70;68.80;;;;;;6931465;28;20462;-80
2022/06/23 15:01:12;;;;;;;11.75;3.05;;;30.80;68.40;;;;;;6934017;28;20443;-79
2022/06/23 15:04:42;;;;;;;10.40;2.60;;;31.10;68.40;;;;;;6918664;28;20981;-78
2022/06/23 15:08:12;;;;;;;8.77;2.28;;;31.40;67.80;;;;;;6911214;28;20437;-78
2022/06/23 15:11:45;;;;;;;9.40;2.50;;;31.60;67.50;;;;;;6933040;28;20493;-79
2022/06/23 15:15:16;;;;;;;7.93;2.33;;;31.70;64.80;;;;;;6936025;28;20477;-79
2022/06/23 15:18:49;;;;;;;11.65;2.53;;;31.80;64.60;;;;;;6935957;28;20443;-76
2022/06/23 15:26:14;;;;;;;9.05;2.40;;;32.20;63.60;;;;;;6938433;28;20435;-79
2022/06/23 15:29:43;;;;;;;7.93;2.43;;;32.20;63.00;;;;;;6924944;28;20840;-76
2022/06/23 15:33:17;;;;;;;8.15;2.70;;;32.40;62.30;;;;;;6933552;28;20450;-78
2022/06/23 15:36:52;;;;;;;7.25;2.10;;;32.30;62.40;;;;;;6934530;28;20474;-79
2022/06/23 15:40:29;;;;;;;9.65;2.75;;;32.20;61.30;;;;;;6934139;28;20473;-78
2022/06/23 15:44:04;;;;;;;8.60;2.33;;;32.30;60.20;;;;;;6936884;28;20474;-78
2022/06/23 15:47:34;;;;;;;9.03;2.50;;;32.40;61.30;;;;;;6937440;28;20450;-76
2022/06/23 15:51:02;;;;;;;12.05;5.03;;;32.60;60.30;;;;;;6937082;28;20462;-79
2022/06/23 15:54:34;;;;;;;9.48;2.40;;;32.80;61.10;;;;;;6935604;28;20443;-78
2022/06/23 15:58:02;;;;;;;7.70;2.22;;;33.10;60.40;;;;;;6935303;28;20463;-78
2022/06/23 16:01:32;;;;;;;7.20;2.17;;;33.40;58.30;;;;;;6942046;28;20529;-79
2022/06/23 16:05:00;;;;;;;9.13;1.95;;;33.60;56.10;;;;;;6941476;28;20438;-78
2022/06/23 16:08:28;;;;;;;8.73;2.00;;;33.70;56.00;;;;;;6941195;28;20461;-79
2022/06/23 16:11:53;;;;;;;7.53;2.25;;;33.60;55.70;;;;;;6941435;28;20477;-80
2022/06/23 16:15:28;;;;;;;9.37;1.70;;;33.50;55.50;;;;;;6941016;28;20431;-78
2022/06/23 16:18:54;;;;;;;9.25;1.95;;;33.40;54.40;;;;;;6940613;28;20431;-79
2022/06/23 16:22:21;;;;;;;7.50;1.73;;;33.40;54.20;;;;;;6940065;28;20450;-78
2022/06/23 16:25:55;;;;;;;7.90;2.00;;;33.70;54.40;;;;;;6940916;28;20446;-78
2022/06/23 16:29:22;;;;;;;7.65;2.03;;;33.70;54.40;;;;;;6940094;28;20554;-79
2022/06/23 16:32:49;;;;;;;8.05;1.98;;;33.70;56.20;;;;;;6938406;28;20442;-80
2022/06/23 16:36:22;;;;;;;12.48;3.08;;;33.70;56.50;;;;;;6941329;28;20443;-79
2022/06/23 16:39:51;;;;;;;11.93;3.33;;;33.60;56.50;;;;;;6940524;28;20817;-81
2022/06/23 16:43:17;;;;;;;10.27;3.60;;;33.70;56.50;;;;;;6940043;28;20534;-82
2022/06/23 16:46:51;;;;;;;10.57;2.70;;;33.90;57.00;;;;;;6939919;28;20934;-83
2022/06/23 16:50:25;;;;;;;6.75;1.90;;;34.00;55.20;;;;;;6940036;28;20438;-85
2022/06/23 16:53:54;;;;;;;9.80;1.83;;;34.00;54.60;;;;;;6941839;28;20442;-83
2022/06/23 16:57:24;;;;;;;7.68;2.00;;;33.90;54.60;;;;;;6938851;28;20824;-82
2022/06/23 17:00:58;;;;;;;8.90;1.88;;;33.90;54.60;;;;;;6940419;28;20912;-84
2022/06/23 17:04:24;;;;;;;7.75;1.95;;;34.10;53.70;;;;;;6939977;28;20485;-82
2022/06/23 17:07:56;;;;;;;8.25;1.90;;;34.20;52.50;;;;;;6937720;28;20538;-86
2022/06/23 17:11:26;;;;;;;13.85;5.15;;;34.20;52.40;;;;;;6921348;28;20438;-83
2022/06/23 17:14:53;;;;;;;9.43;3.22;;;34.20;53.40;;;;;;6939958;28;20447;-81
2022/06/23 17:18:21;;;;;;;8.07;2.10;;;33.90;53.90;;;;;;6919914;28;20796;-82
2022/06/23 17:21:49;;;;;;;8.30;1.90;;;34.00;53.60;;;;;;6939149;28;20932;-82
2022/06/23 17:25:23;;;;;;;6.60;1.75;;;34.30;52.20;;;;;;6945715;28;20479;-82
2022/06/23 17:28:53;;;;;;;10.77;1.90;;;34.50;52.60;;;;;;6940161;28;20481;-82
2022/06/23 17:32:31;;;;;;;7.32;1.70;;;34.50;51.90;;;;;;6938530;28;20431;-84
2022/06/23 17:36:07;;;;;;;7.83;1.80;;;34.00;52.40;;;;;;6937568;28;20525;-80
2022/06/23 17:47:18;;;;;;;8.23;2.25;;;34.10;55.60;;;;;;6901969;28;20973;-85
2022/06/23 17:50:43;;;;;;;7.60;1.80;;;34.00;55.10;;;;;;6944528;28;20479;-82
2022/06/23 17:54:13;;;;;;;5.95;2.00;;;34.20;55.70;;;;;;6940554;28;20473;-83
2022/06/23 17:57:38;;;;;;;9.07;2.05;;;34.30;55.90;;;;;;6940760;28;20439;-83
2022/06/23 18:01:09;;;;;;;6.40;1.77;;;34.00;55.90;;;;;;6938313;28;20445;-82
2022/06/23 18:04:43;;;;;;;6.93;1.80;;;33.80;56.30;;;;;;6936006;28;20430;-82
2022/06/23 18:08:11;;;;;;;9.48;2.10;;;33.80;56.10;;;;;;6916321;28;20450;-83
2022/06/23 18:11:39;;;;;;;7.88;1.70;;;33.80;56.10;;;;;;6937070;28;20435;-83
2022/06/23 18:15:20;;;;;;;8.20;1.92;;;33.80;56.00;;;;;;6937065;28;20983;-83
2022/06/23 18:18:49;;;;;;;8.23;2.08;;;33.60;56.70;;;;;;6919908;28;20904;-84
2022/06/23 18:22:16;;;;;;;8.03;2.00;;;33.70;57.00;;;;;;6934750;28;20447;-80
2022/06/23 18:25:50;;;;;;;9.10;1.97;;;33.50;56.70;;;;;;6935950;28;20460;-77
2022/06/23 18:29:19;;;;;;;7.63;1.92;;;33.20;58.00;;;;;;6937738;28;20916;-79
2022/06/23 18:32:49;;;;;;;7.53;2.03;;;32.70;58.40;;;;;;6934410;28;20497;-79
2022/06/23 18:36:21;;;;;;;7.93;2.07;;;32.50;59.40;;;;;;6937860;28;20542;-78
2022/06/23 18:39:50;;;;;;;8.48;2.10;;;32.30;60.70;;;;;;6933162;28;20489;-83
2022/06/23 18:43:19;;;;;;;7.90;1.98;;;32.30;61.60;;;;;;6921779;28;20501;-81
2022/06/23 18:46:50;;;;;;;9.02;1.80;;;32.10;63.00;;;;;;6937817;28;20438;-84